KLM165 EHAM-EDDN
Flight info
| Callsign | KLM165 |
|---|---|
| Flight time | 1h 0m |
| Altitude | 35000 |
| Route | EDUPO Z739 MISGO DCT TIVUN DCT TESGA Z719 ETOLU Z723 RITUP/N0382F230 Z723 KOMIB T193 ERTES T194 DODAS DODAS1V |
| Aircraft | B738/M-SABDFGRVYL/LB2 |
Departure
| Time | 2026-04-27 17:59 |
|---|---|
| Airport | Amsterdam Airport Schiphol (EHAM) |
Arrival
| Time | 2026-04-27 19:00 |
|---|---|
| Airport | Nuremberg Airport (EDDN) |
| Time | Latitude | Longitude | Altitude | Speed | Heading |
|---|---|---|---|---|---|
| 2026-04-27 16:57 | 52.30505 | 4.76553 | -2 ft | 0 kts | 59° |
| 2026-04-27 17:44 | 52.30505 | 4.76552 | -2 ft | 1 kts | 59° |
| 2026-04-27 17:44 | 52.30497 | 4.76532 | -2 ft | 2 kts | 58° |
| 2026-04-27 17:44 | 52.30489 | 4.76511 | -2 ft | 2 kts | 59° |
| 2026-04-27 17:45 | 52.30483 | 4.76489 | -2 ft | 2 kts | 86° |
| 2026-04-27 17:45 | 52.30485 | 4.76465 | -2 ft | 2 kts | 118° |
| 2026-04-27 17:45 | 52.30489 | 4.76455 | -2 ft | 1 kts | 137° |
| 2026-04-27 17:45 | 52.30493 | 4.76449 | -2 ft | 0 kts | 133° |
| 2026-04-27 17:47 | 52.30489 | 4.76456 | -2 ft | 4 kts | 140° |
| 2026-04-27 17:48 | 52.30423 | 4.76522 | -2 ft | 15 kts | 148° |
| 2026-04-27 17:48 | 52.30324 | 4.76570 | -2 ft | 15 kts | 206° |
| 2026-04-27 17:48 | 52.30261 | 4.76433 | -2 ft | 15 kts | 238° |
| 2026-04-27 17:48 | 52.30191 | 4.76250 | -2 ft | 21 kts | 238° |
| 2026-04-27 17:49 | 52.30111 | 4.76042 | -2 ft | 21 kts | 238° |
| 2026-04-27 17:49 | 52.30034 | 4.75840 | -2 ft | 21 kts | 238° |
| 2026-04-27 17:49 | 52.29956 | 4.75634 | -2 ft | 21 kts | 238° |
| 2026-04-27 17:49 | 52.29879 | 4.75433 | -2 ft | 20 kts | 238° |
| 2026-04-27 17:50 | 52.29835 | 4.75230 | -2 ft | 19 kts | 286° |
| 2026-04-27 17:50 | 52.30035 | 4.74834 | -2 ft | 27 kts | 311° |
| 2026-04-27 17:50 | 52.30162 | 4.74600 | -2 ft | 27 kts | 311° |
| 2026-04-27 17:51 | 52.30285 | 4.74370 | -2 ft | 26 kts | 311° |
| 2026-04-27 17:51 | 52.30430 | 4.74196 | -2 ft | 26 kts | 354° |
| 2026-04-27 17:51 | 52.30608 | 4.74205 | -2 ft | 25 kts | 3° |
| 2026-04-27 17:51 | 52.30783 | 4.74222 | -2 ft | 25 kts | 2° |
| 2026-04-27 17:52 | 52.30954 | 4.74236 | -2 ft | 24 kts | 4° |
| 2026-04-27 17:52 | 52.31124 | 4.74255 | -2 ft | 24 kts | 4° |
| 2026-04-27 17:52 | 52.31288 | 4.74270 | -2 ft | 23 kts | 3° |
| 2026-04-27 17:52 | 52.31453 | 4.74285 | -2 ft | 23 kts | 3° |
| 2026-04-27 17:53 | 52.31611 | 4.74300 | -2 ft | 22 kts | 2° |
| 2026-04-27 17:53 | 52.31771 | 4.74315 | -2 ft | 23 kts | 4° |
| 2026-04-27 17:53 | 52.31930 | 4.74328 | -2 ft | 22 kts | 3° |
| 2026-04-27 17:53 | 52.32030 | 4.74246 | -2 ft | 17 kts | 279° |
| 2026-04-27 17:54 | 52.32038 | 4.74035 | -2 ft | 21 kts | 274° |
| 2026-04-27 17:54 | 52.32048 | 4.73788 | -2 ft | 21 kts | 274° |
| 2026-04-27 17:54 | 52.32056 | 4.73544 | -2 ft | 21 kts | 272° |
| 2026-04-27 17:54 | 52.32108 | 4.73329 | -2 ft | 21 kts | 319° |
| 2026-04-27 17:55 | 52.32224 | 4.73164 | -2 ft | 25 kts | 320° |
| 2026-04-27 17:55 | 52.32367 | 4.72963 | -2 ft | 27 kts | 319° |
| 2026-04-27 17:55 | 52.32509 | 4.72763 | -2 ft | 26 kts | 319° |
| 2026-04-27 17:55 | 52.32648 | 4.72567 | -2 ft | 26 kts | 321° |
| 2026-04-27 17:56 | 52.32773 | 4.72345 | -2 ft | 26 kts | 311° |
| 2026-04-27 17:56 | 52.32891 | 4.72126 | -2 ft | 25 kts | 311° |
| 2026-04-27 17:56 | 52.33009 | 4.71906 | -2 ft | 25 kts | 311° |
| 2026-04-27 17:56 | 52.33120 | 4.71698 | -2 ft | 22 kts | 308° |
| 2026-04-27 17:57 | 52.33132 | 4.71482 | -2 ft | 16 kts | 256° |
| 2026-04-27 17:57 | 52.33184 | 4.71325 | -2 ft | 16 kts | 311° |
| 2026-04-27 17:57 | 52.33271 | 4.71165 | -2 ft | 22 kts | 311° |
| 2026-04-27 17:57 | 52.33374 | 4.70974 | -2 ft | 17 kts | 320° |
| 2026-04-27 17:58 | 52.33441 | 4.70939 | -2 ft | 3 kts | 1° |
| 2026-04-27 17:58 | 52.33462 | 4.70940 | -2 ft | 2 kts | 3° |
| 2026-04-27 17:58 | 52.33539 | 4.70948 | -2 ft | 36 kts | 3° |
| 2026-04-27 17:58 | 52.34033 | 4.70992 | -2 ft | 102 kts | 4° |
| 2026-04-27 17:59 | 52.34920 | 4.71074 | 7 ft | 151 kts | 6° |
| 2026-04-27 17:59 | 52.35972 | 4.71167 | 542 ft | 153 kts | 4° |
| 2026-04-27 17:59 | 52.37045 | 4.71230 | 1134 ft | 157 kts | 6° |
| 2026-04-27 17:59 | 52.38157 | 4.71324 | 1599 ft | 170 kts | 7° |
| 2026-04-27 18:00 | 52.39349 | 4.71471 | 2223 ft | 177 kts | 9° |
| 2026-04-27 18:00 | 52.40640 | 4.71651 | 2729 ft | 193 kts | 8° |
| 2026-04-27 18:00 | 52.42027 | 4.71863 | 3206 ft | 211 kts | 12° |
| 2026-04-27 18:00 | 52.43433 | 4.72676 | 3783 ft | 223 kts | 31° |
| 2026-04-27 18:01 | 52.44788 | 4.74036 | 4321 ft | 238 kts | 33° |
| 2026-04-27 18:01 | 52.46231 | 4.75554 | 4855 ft | 254 kts | 36° |
| 2026-04-27 18:01 | 52.47526 | 4.77539 | 5577 ft | 261 kts | 54° |
| 2026-04-27 18:01 | 52.48252 | 4.80240 | 6319 ft | 267 kts | 79° |
| 2026-04-27 18:02 | 52.48449 | 4.83283 | 7094 ft | 272 kts | 85° |
| 2026-04-27 18:02 | 52.48553 | 4.86380 | 7862 ft | 276 kts | 89° |
| 2026-04-27 18:02 | 52.48346 | 4.89527 | 8616 ft | 282 kts | 105° |
| 2026-04-27 18:02 | 52.47517 | 4.92399 | 9348 ft | 287 kts | 127° |
| 2026-04-27 18:03 | 52.46115 | 4.94684 | 10108 ft | 291 kts | 142° |
| 2026-04-27 18:03 | 52.44471 | 4.96644 | 10707 ft | 300 kts | 145° |
| 2026-04-27 18:03 | 52.42695 | 4.98658 | 11110 ft | 316 kts | 146° |
| 2026-04-27 18:03 | 52.40879 | 5.00784 | 11531 ft | 332 kts | 141° |
| 2026-04-27 18:04 | 52.39211 | 5.03475 | 11901 ft | 348 kts | 130° |
| 2026-04-27 18:04 | 52.37669 | 5.06639 | 12508 ft | 357 kts | 127° |
| 2026-04-27 18:04 | 52.36184 | 5.09870 | 13056 ft | 367 kts | 127° |
| 2026-04-27 18:04 | 52.34590 | 5.13280 | 13476 ft | 382 kts | 127° |
| 2026-04-27 18:05 | 52.32941 | 5.16685 | 13993 ft | 393 kts | 128° |
| 2026-04-27 18:05 | 52.31192 | 5.20194 | 14683 ft | 400 kts | 129° |
| 2026-04-27 18:05 | 52.29413 | 5.23701 | 15451 ft | 405 kts | 130° |
| 2026-04-27 18:05 | 52.27606 | 5.27231 | 16158 ft | 410 kts | 130° |
| 2026-04-27 18:06 | 52.25767 | 5.30808 | 16880 ft | 415 kts | 130° |
| 2026-04-27 18:06 | 52.23922 | 5.34392 | 17567 ft | 420 kts | 130° |
| 2026-04-27 18:06 | 52.22042 | 5.38039 | 18247 ft | 425 kts | 131° |
| 2026-04-27 18:06 | 52.20136 | 5.41735 | 18934 ft | 429 kts | 131° |
| 2026-04-27 18:07 | 52.18205 | 5.45475 | 19565 ft | 435 kts | 131° |
| 2026-04-27 18:07 | 52.16240 | 5.49278 | 20236 ft | 440 kts | 131° |
| 2026-04-27 18:07 | 52.14283 | 5.53062 | 20874 ft | 444 kts | 131° |
| 2026-04-27 18:07 | 52.12304 | 5.56885 | 21488 ft | 449 kts | 131° |
| 2026-04-27 18:08 | 52.10283 | 5.60782 | 22019 ft | 455 kts | 131° |
| 2026-04-27 18:08 | 52.08229 | 5.64734 | 22646 ft | 459 kts | 131° |
| 2026-04-27 18:08 | 52.06175 | 5.68683 | 23225 ft | 463 kts | 133° |
| 2026-04-27 18:08 | 52.04086 | 5.72695 | 23825 ft | 467 kts | 133° |
| 2026-04-27 18:09 | 52.02001 | 5.76691 | 24359 ft | 472 kts | 133° |
| 2026-04-27 18:09 | 51.99871 | 5.80767 | 24967 ft | 475 kts | 133° |
| 2026-04-27 18:09 | 51.97741 | 5.84838 | 25482 ft | 480 kts | 133° |
| 2026-04-27 18:09 | 51.95583 | 5.88955 | 25964 ft | 485 kts | 133° |
| 2026-04-27 18:10 | 51.93367 | 5.93175 | 26276 ft | 487 kts | 133° |
| 2026-04-27 18:10 | 51.91187 | 5.97323 | 26620 ft | 484 kts | 133° |
| 2026-04-27 18:10 | 51.89015 | 6.01450 | 26961 ft | 484 kts | 133° |
| 2026-04-27 18:10 | 51.86816 | 6.05618 | 27313 ft | 485 kts | 133° |
| 2026-04-27 18:11 | 51.84652 | 6.09714 | 27654 ft | 483 kts | 133° |
| 2026-04-27 18:11 | 51.82469 | 6.13839 | 27994 ft | 484 kts | 134° |
| 2026-04-27 18:11 | 51.80289 | 6.17950 | 28344 ft | 485 kts | 134° |
| 2026-04-27 18:11 | 51.78083 | 6.22101 | 28741 ft | 484 kts | 134° |
| 2026-04-27 18:12 | 51.75901 | 6.26201 | 29124 ft | 484 kts | 134° |
| 2026-04-27 18:12 | 51.73710 | 6.30313 | 29190 ft | 484 kts | 134° |
| 2026-04-27 18:12 | 51.69336 | 6.38507 | 29202 ft | 484 kts | 134° |
| 2026-04-27 18:13 | 51.67124 | 6.42638 | 29781 ft | 484 kts | 134° |
| 2026-04-27 18:13 | 51.64951 | 6.46696 | 30678 ft | 476 kts | 135° |
| 2026-04-27 18:13 | 51.62814 | 6.50685 | 31330 ft | 472 kts | 135° |
| 2026-04-27 18:13 | 51.60680 | 6.54656 | 31771 ft | 473 kts | 135° |
| 2026-04-27 18:14 | 51.58528 | 6.58647 | 32171 ft | 474 kts | 135° |
| 2026-04-27 18:14 | 51.56378 | 6.62627 | 32613 ft | 474 kts | 135° |
| 2026-04-27 18:14 | 51.54223 | 6.66613 | 33063 ft | 474 kts | 136° |
| 2026-04-27 18:14 | 51.52040 | 6.70644 | 33467 ft | 474 kts | 136° |
| 2026-04-27 18:15 | 51.49888 | 6.74612 | 33849 ft | 475 kts | 136° |
| 2026-04-27 18:15 | 51.47730 | 6.78585 | 34245 ft | 475 kts | 136° |
| 2026-04-27 18:15 | 51.45550 | 6.82592 | 34599 ft | 477 kts | 137° |
| 2026-04-27 18:15 | 51.43377 | 6.86577 | 34878 ft | 478 kts | 137° |
| 2026-04-27 18:16 | 51.41186 | 6.90591 | 35143 ft | 478 kts | 136° |
| 2026-04-27 18:16 | 51.39008 | 6.94575 | 35177 ft | 480 kts | 136° |
| 2026-04-27 18:16 | 51.34637 | 7.02568 | 35170 ft | 475 kts | 137° |
| 2026-04-27 18:17 | 51.30296 | 7.10475 | 35162 ft | 477 kts | 136° |
| 2026-04-27 18:17 | 51.25880 | 7.18483 | 35151 ft | 477 kts | 136° |
| 2026-04-27 18:18 | 51.21511 | 7.26390 | 35162 ft | 477 kts | 137° |
| 2026-04-27 18:18 | 51.17131 | 7.34288 | 35148 ft | 478 kts | 137° |
| 2026-04-27 18:19 | 51.12714 | 7.42224 | 35158 ft | 480 kts | 137° |
| 2026-04-27 18:19 | 51.08316 | 7.50108 | 35142 ft | 478 kts | 137° |
| 2026-04-27 18:20 | 51.03888 | 7.58018 | 35139 ft | 481 kts | 137° |
| 2026-04-27 18:20 | 50.99458 | 7.65912 | 35150 ft | 478 kts | 138° |
| 2026-04-27 18:21 | 50.95046 | 7.73749 | 35151 ft | 478 kts | 137° |
| 2026-04-27 18:21 | 50.90621 | 7.81580 | 35151 ft | 480 kts | 137° |
| 2026-04-27 18:22 | 50.86174 | 7.89432 | 35157 ft | 479 kts | 137° |
| 2026-04-27 18:22 | 50.81704 | 7.97301 | 35165 ft | 479 kts | 137° |
| 2026-04-27 18:23 | 50.77254 | 8.05109 | 35168 ft | 480 kts | 137° |
| 2026-04-27 18:23 | 50.72786 | 8.12925 | 35171 ft | 480 kts | 137° |
| 2026-04-27 18:24 | 50.68346 | 8.20665 | 35167 ft | 480 kts | 137° |
| 2026-04-27 18:24 | 50.63847 | 8.28497 | 35163 ft | 480 kts | 136° |
| 2026-04-27 18:25 | 50.59761 | 8.36616 | 34621 ft | 475 kts | 130° |
| 2026-04-27 18:25 | 50.57832 | 8.40893 | 33879 ft | 478 kts | 128° |
| 2026-04-27 18:25 | 50.55970 | 8.45136 | 33203 ft | 479 kts | 128° |
| 2026-04-27 18:26 | 50.54079 | 8.49479 | 32490 ft | 479 kts | 128° |
| 2026-04-27 18:26 | 50.52211 | 8.53758 | 32174 ft | 477 kts | 128° |
| 2026-04-27 18:26 | 50.48445 | 8.62295 | 32140 ft | 469 kts | 128° |
| 2026-04-27 18:27 | 50.44751 | 8.70574 | 32115 ft | 463 kts | 129° |
| 2026-04-27 18:27 | 50.42887 | 8.74711 | 31697 ft | 468 kts | 129° |
| 2026-04-27 18:27 | 50.41012 | 8.78849 | 31044 ft | 468 kts | 129° |
| 2026-04-27 18:28 | 50.39140 | 8.82974 | 30382 ft | 468 kts | 129° |
| 2026-04-27 18:28 | 50.37260 | 8.87106 | 29700 ft | 466 kts | 129° |
| 2026-04-27 18:28 | 50.35389 | 8.91213 | 29021 ft | 465 kts | 129° |
| 2026-04-27 18:28 | 50.33515 | 8.95318 | 28341 ft | 463 kts | 129° |
| 2026-04-27 18:29 | 50.31673 | 8.99349 | 27674 ft | 462 kts | 128° |
| 2026-04-27 18:29 | 50.29802 | 9.03436 | 26995 ft | 460 kts | 128° |
| 2026-04-27 18:29 | 50.27962 | 9.07450 | 26323 ft | 457 kts | 128° |
| 2026-04-27 18:29 | 50.26123 | 9.11457 | 25659 ft | 455 kts | 128° |
| 2026-04-27 18:30 | 50.24287 | 9.15452 | 25176 ft | 448 kts | 128° |
| 2026-04-27 18:30 | 50.22505 | 9.19330 | 25142 ft | 433 kts | 128° |
| 2026-04-27 18:30 | 50.20851 | 9.23228 | 25142 ft | 432 kts | 122° |
| 2026-04-27 18:30 | 50.19526 | 9.27407 | 25139 ft | 439 kts | 112° |
| 2026-04-27 18:31 | 50.18663 | 9.32000 | 25145 ft | 440 kts | 101° |
| 2026-04-27 18:31 | 50.18284 | 9.36714 | 25143 ft | 439 kts | 93° |
| 2026-04-27 18:31 | 50.18179 | 9.41443 | 25144 ft | 439 kts | 90° |
| 2026-04-27 18:31 | 50.18191 | 9.46161 | 25144 ft | 439 kts | 88° |
| 2026-04-27 18:32 | 50.18256 | 9.50888 | 25137 ft | 434 kts | 87° |
| 2026-04-27 18:32 | 50.18341 | 9.55570 | 25139 ft | 436 kts | 87° |
| 2026-04-27 18:32 | 50.18431 | 9.60355 | 25142 ft | 439 kts | 87° |
| 2026-04-27 18:32 | 50.18512 | 9.65052 | 25141 ft | 438 kts | 88° |
| 2026-04-27 18:33 | 50.18583 | 9.69797 | 25144 ft | 437 kts | 88° |
| 2026-04-27 18:33 | 50.18646 | 9.74537 | 25142 ft | 437 kts | 88° |
| 2026-04-27 18:33 | 50.18702 | 9.79264 | 25136 ft | 437 kts | 88° |
| 2026-04-27 18:33 | 50.18752 | 9.83948 | 25139 ft | 437 kts | 88° |
| 2026-04-27 18:34 | 50.18799 | 9.88668 | 25144 ft | 437 kts | 88° |
| 2026-04-27 18:34 | 50.18834 | 9.93432 | 25138 ft | 437 kts | 89° |
| 2026-04-27 18:34 | 50.18663 | 9.98126 | 25135 ft | 438 kts | 97° |
| 2026-04-27 18:34 | 50.17958 | 10.02741 | 25138 ft | 437 kts | 111° |
| 2026-04-27 18:35 | 50.16607 | 10.06940 | 25139 ft | 437 kts | 124° |
| 2026-04-27 18:35 | 50.14837 | 10.10704 | 25138 ft | 434 kts | 130° |
| 2026-04-27 18:35 | 50.12920 | 10.14361 | 25143 ft | 435 kts | 132° |
| 2026-04-27 18:35 | 50.10977 | 10.17916 | 25142 ft | 434 kts | 133° |
| 2026-04-27 18:36 | 50.08981 | 10.21494 | 25139 ft | 433 kts | 132° |
| 2026-04-27 18:36 | 50.07131 | 10.25150 | 25137 ft | 434 kts | 126° |
| 2026-04-27 18:36 | 50.05554 | 10.29139 | 25138 ft | 436 kts | 120° |
| 2026-04-27 18:36 | 50.04177 | 10.33332 | 25138 ft | 437 kts | 116° |
| 2026-04-27 18:37 | 50.02902 | 10.37599 | 25140 ft | 436 kts | 115° |
| 2026-04-27 18:37 | 50.01663 | 10.41893 | 25139 ft | 437 kts | 114° |
| 2026-04-27 18:37 | 50.00429 | 10.46177 | 25145 ft | 437 kts | 114° |
| 2026-04-27 18:37 | 49.99171 | 10.50494 | 25142 ft | 436 kts | 115° |
| 2026-04-27 18:38 | 49.97907 | 10.54698 | 25084 ft | 434 kts | 116° |
| 2026-04-27 18:38 | 49.96462 | 10.58783 | 24655 ft | 428 kts | 124° |
| 2026-04-27 18:38 | 49.94659 | 10.62396 | 24074 ft | 424 kts | 134° |
| 2026-04-27 18:38 | 49.92493 | 10.65456 | 23463 ft | 418 kts | 146° |
| 2026-04-27 18:39 | 49.90049 | 10.67838 | 22901 ft | 411 kts | 156° |
| 2026-04-27 18:39 | 49.87450 | 10.69463 | 22339 ft | 403 kts | 167° |
| 2026-04-27 18:39 | 49.84732 | 10.70526 | 21781 ft | 398 kts | 171° |
| 2026-04-27 18:39 | 49.82030 | 10.71277 | 21169 ft | 394 kts | 178° |
| 2026-04-27 18:40 | 49.79329 | 10.71598 | 20626 ft | 389 kts | 180° |
| 2026-04-27 18:40 | 49.76674 | 10.71811 | 20073 ft | 386 kts | 180° |
| 2026-04-27 18:40 | 49.74014 | 10.71974 | 19522 ft | 383 kts | 182° |
| 2026-04-27 18:40 | 49.71373 | 10.72252 | 18927 ft | 383 kts | 175° |
| 2026-04-27 18:41 | 49.68796 | 10.73392 | 18337 ft | 385 kts | 156° |
| 2026-04-27 18:41 | 49.66579 | 10.75655 | 17788 ft | 384 kts | 140° |
| 2026-04-27 18:41 | 49.64777 | 10.78652 | 17197 ft | 384 kts | 127° |
| 2026-04-27 18:41 | 49.63373 | 10.82072 | 16577 ft | 383 kts | 118° |
| 2026-04-27 18:42 | 49.62239 | 10.85781 | 15938 ft | 381 kts | 110° |
| 2026-04-27 18:42 | 49.61712 | 10.88366 | 15512 ft | 379 kts | 103° |
| 2026-04-27 18:42 | 49.61076 | 10.93638 | 14685 ft | 376 kts | 97° |
| 2026-04-27 18:42 | 49.60759 | 10.97593 | 14055 ft | 374 kts | 96° |
| 2026-04-27 18:43 | 49.60465 | 11.01560 | 13412 ft | 372 kts | 96° |
| 2026-04-27 18:43 | 49.60156 | 11.05466 | 12788 ft | 370 kts | 96° |
| 2026-04-27 18:43 | 49.59815 | 11.09396 | 12164 ft | 369 kts | 97° |
| 2026-04-27 18:43 | 49.59452 | 11.13286 | 11543 ft | 367 kts | 97° |
| 2026-04-27 18:44 | 49.59080 | 11.17126 | 10933 ft | 365 kts | 97° |
| 2026-04-27 18:44 | 49.58702 | 11.20935 | 10348 ft | 362 kts | 98° |
| 2026-04-27 18:44 | 49.58321 | 11.24729 | 9862 ft | 356 kts | 98° |
| 2026-04-27 18:44 | 49.57948 | 11.28430 | 9681 ft | 342 kts | 98° |
| 2026-04-27 18:45 | 49.57592 | 11.31953 | 9540 ft | 328 kts | 97° |
| 2026-04-27 18:45 | 49.57252 | 11.35327 | 9428 ft | 314 kts | 97° |
| 2026-04-27 18:45 | 49.56921 | 11.38604 | 9326 ft | 300 kts | 97° |
| 2026-04-27 18:45 | 49.56607 | 11.41705 | 9135 ft | 291 kts | 97° |
| 2026-04-27 18:46 | 49.56302 | 11.44727 | 8819 ft | 288 kts | 97° |
| 2026-04-27 18:46 | 49.55992 | 11.47785 | 8467 ft | 285 kts | 97° |
| 2026-04-27 18:46 | 49.55685 | 11.50765 | 8177 ft | 282 kts | 98° |
| 2026-04-27 18:46 | 49.55374 | 11.53726 | 8140 ft | 281 kts | 98° |
| 2026-04-27 18:47 | 49.55063 | 11.56684 | 8131 ft | 284 kts | 98° |
| 2026-04-27 18:47 | 49.54750 | 11.59699 | 8146 ft | 284 kts | 98° |
| 2026-04-27 18:47 | 49.54438 | 11.62688 | 8142 ft | 284 kts | 98° |
| 2026-04-27 18:47 | 49.54125 | 11.65678 | 8139 ft | 283 kts | 98° |
| 2026-04-27 18:48 | 49.53812 | 11.68651 | 8102 ft | 281 kts | 98° |
| 2026-04-27 18:48 | 49.53498 | 11.71591 | 7779 ft | 279 kts | 98° |
| 2026-04-27 18:48 | 49.53186 | 11.74521 | 7393 ft | 278 kts | 98° |
| 2026-04-27 18:48 | 49.52876 | 11.77445 | 7036 ft | 276 kts | 98° |
| 2026-04-27 18:49 | 49.52568 | 11.80351 | 6688 ft | 274 kts | 98° |
| 2026-04-27 18:49 | 49.52266 | 11.83204 | 6352 ft | 272 kts | 98° |
| 2026-04-27 18:49 | 49.51858 | 11.86019 | 6006 ft | 270 kts | 111° |
| 2026-04-27 18:49 | 49.50786 | 11.88340 | 5971 ft | 266 kts | 139° |
| 2026-04-27 18:50 | 49.49192 | 11.89588 | 5971 ft | 254 kts | 168° |
| 2026-04-27 18:50 | 49.47446 | 11.89500 | 5975 ft | 255 kts | 197° |
| 2026-04-27 18:50 | 49.45949 | 11.88150 | 5978 ft | 256 kts | 226° |
| 2026-04-27 18:50 | 49.45011 | 11.85844 | 5979 ft | 254 kts | 251° |
| 2026-04-27 18:51 | 49.44763 | 11.83209 | 5973 ft | 252 kts | 276° |
| 2026-04-27 18:51 | 49.44893 | 11.80523 | 5963 ft | 253 kts | 266° |
| 2026-04-27 18:51 | 49.44457 | 11.77910 | 5979 ft | 253 kts | 249° |
| 2026-04-27 18:51 | 49.43850 | 11.75359 | 5967 ft | 254 kts | 255° |
| 2026-04-27 18:52 | 49.43536 | 11.72712 | 5967 ft | 253 kts | 268° |
| 2026-04-27 18:52 | 49.43567 | 11.70009 | 5968 ft | 253 kts | 276° |
| 2026-04-27 18:52 | 49.43778 | 11.67329 | 5974 ft | 253 kts | 279° |
| 2026-04-27 18:53 | 49.44334 | 11.62126 | 5966 ft | 241 kts | 281° |
| 2026-04-27 18:53 | 49.44607 | 11.59573 | 5970 ft | 243 kts | 280° |
| 2026-04-27 18:53 | 49.44874 | 11.57029 | 5974 ft | 241 kts | 280° |
| 2026-04-27 18:53 | 49.45140 | 11.54463 | 5969 ft | 241 kts | 280° |
| 2026-04-27 18:54 | 49.45399 | 11.51949 | 5969 ft | 241 kts | 280° |
| 2026-04-27 18:54 | 49.45661 | 11.49415 | 5968 ft | 242 kts | 280° |
| 2026-04-27 18:54 | 49.45921 | 11.46900 | 5932 ft | 231 kts | 280° |
| 2026-04-27 18:54 | 49.46170 | 11.44480 | 5657 ft | 224 kts | 280° |
| 2026-04-27 18:55 | 49.46409 | 11.42151 | 5354 ft | 220 kts | 280° |
| 2026-04-27 18:55 | 49.46645 | 11.39843 | 5041 ft | 217 kts | 281° |
| 2026-04-27 18:55 | 49.46869 | 11.37643 | 4746 ft | 204 kts | 281° |
| 2026-04-27 18:55 | 49.47080 | 11.35558 | 4441 ft | 192 kts | 281° |
| 2026-04-27 18:56 | 49.47281 | 11.33585 | 4182 ft | 180 kts | 281° |
| 2026-04-27 18:56 | 49.47464 | 11.31762 | 3962 ft | 168 kts | 281° |
| 2026-04-27 18:56 | 49.47639 | 11.30048 | 3740 ft | 163 kts | 281° |
| 2026-04-27 18:56 | 49.47815 | 11.28327 | 3495 ft | 161 kts | 281° |
| 2026-04-27 18:57 | 49.47987 | 11.26625 | 3280 ft | 162 kts | 281° |
| 2026-04-27 18:57 | 49.48159 | 11.24925 | 3054 ft | 160 kts | 281° |
| 2026-04-27 18:57 | 49.48325 | 11.23256 | 2839 ft | 158 kts | 280° |
| 2026-04-27 18:57 | 49.48493 | 11.21594 | 2623 ft | 156 kts | 280° |
| 2026-04-27 18:58 | 49.48656 | 11.19960 | 2413 ft | 155 kts | 279° |
| 2026-04-27 18:58 | 49.48818 | 11.18345 | 2208 ft | 153 kts | 279° |
| 2026-04-27 18:58 | 49.48982 | 11.16741 | 1998 ft | 151 kts | 279° |
| 2026-04-27 18:58 | 49.49146 | 11.15148 | 1800 ft | 149 kts | 279° |
| 2026-04-27 18:59 | 49.49296 | 11.13583 | 1603 ft | 149 kts | 278° |
| 2026-04-27 18:59 | 49.49453 | 11.12031 | 1411 ft | 146 kts | 280° |
| 2026-04-27 18:59 | 49.49609 | 11.10476 | 1201 ft | 146 kts | 279° |
| 2026-04-27 18:59 | 49.49758 | 11.08959 | 1051 ft | 142 kts | 279° |
| 2026-04-27 19:00 | 49.49872 | 11.07788 | 1049 ft | 75 kts | 279° |
| 2026-04-27 19:00 | 49.49925 | 11.07235 | 1049 ft | 37 kts | 278° |
| 2026-04-27 19:00 | 49.49908 | 11.07021 | 1049 ft | 13 kts | 204° |
| 2026-04-27 19:00 | 49.49834 | 11.07040 | 1049 ft | 10 kts | 159° |
| 2026-04-27 19:01 | 49.49795 | 11.07063 | 1049 ft | 4 kts | 159° |
| 2026-04-27 19:01 | 49.49766 | 11.07082 | 1049 ft | 4 kts | 148° |
| 2026-04-27 19:01 | 49.49747 | 11.07117 | 1049 ft | 4 kts | 117° |
| 2026-04-27 19:01 | 49.49739 | 11.07163 | 1049 ft | 6 kts | 98° |
| 2026-04-27 19:02 | 49.49723 | 11.07245 | 1049 ft | 7 kts | 98° |
| 2026-04-27 19:02 | 49.49723 | 11.07350 | 1049 ft | 14 kts | 97° |
| 2026-04-27 19:02 | 49.49707 | 11.07505 | 1049 ft | 14 kts | 97° |
| 2026-04-27 19:02 | 49.49693 | 11.07644 | 1049 ft | 12 kts | 99° |
| 2026-04-27 19:03 | 49.49672 | 11.07760 | 1049 ft | 10 kts | 138° |
| 2026-04-27 19:03 | 49.49618 | 11.07769 | 1049 ft | 6 kts | 179° |
| 2026-04-27 19:03 | 49.49584 | 11.07811 | 1049 ft | 6 kts | 107° |
| 2026-04-27 19:03 | 49.49571 | 11.07853 | 1049 ft | 6 kts | 140° |
| 2026-04-27 19:04 | 49.49540 | 11.07862 | 1049 ft | 1 kts | 182° |
| 2026-04-27 19:04 | 49.49530 | 11.07860 | 1049 ft | 1 kts | 187° |
| 2026-04-27 19:04 | 49.49525 | 11.07859 | 1049 ft | 0 kts | 188° |